Time;durP1;ratioP1;P1;durP2;ratioP2;P2;SDS_P1;SDS_P2;PMS_P1;PMS_P2;Temp;Humidity;BMP_temperature;BMP_pressure;BME280_temperature;BME280_humidity;BME280_pressure;Samples;Min_cycle;Max_cycle;Signal;HPM_P1;HPM_P2
2021/09/08 00:01:59;;;;;;;12.87;11.73;;;18.10;99.90;;;;;;5035361;28;20174;-57
2021/09/08 00:04:25;;;;;;;13.80;12.50;;;18.10;99.90;;;;;;5035207;28;20191;-57
2021/09/08 00:06:50;;;;;;;13.73;12.30;;;18.10;99.90;;;;;;5025034;28;20586;-57
2021/09/08 00:09:17;;;;;;;11.57;10.37;;;18.10;99.90;;;;;;5033090;28;20690;-57
2021/09/08 00:11:42;;;;;;;12.13;11.00;;;18.00;99.90;;;;;;5035487;28;20167;-56
2021/09/08 00:14:08;;;;;;;12.63;11.27;;;17.90;99.90;;;;;;5035067;28;20398;-56
2021/09/08 00:16:34;;;;;;;13.40;12.17;;;17.80;99.90;;;;;;5035410;28;20175;-56
2021/09/08 00:19:00;;;;;;;13.73;12.40;;;17.70;99.90;;;;;;5035425;28;20194;-54
2021/09/08 00:21:25;;;;;;;12.50;11.33;;;17.70;99.90;;;;;;5034739;28;20475;-56
2021/09/08 00:23:51;;;;;;;13.33;11.97;;;17.70;99.90;;;;;;5034603;28;20573;-56
2021/09/08 00:26:16;;;;;;;13.83;12.43;;;17.70;99.90;;;;;;5034580;28;20163;-57
2021/09/08 00:28:42;;;;;;;13.30;12.00;;;17.70;99.90;;;;;;5034860;28;20532;-56
2021/09/08 00:31:08;;;;;;;13.37;12.00;;;17.70;99.90;;;;;;5034812;28;20177;-55
2021/09/08 00:33:33;;;;;;;14.43;13.03;;;17.70;99.90;;;;;;5034845;28;20632;-57
2021/09/08 00:35:59;;;;;;;14.43;12.93;;;17.50;99.90;;;;;;5034728;28;20171;-54
2021/09/08 00:38:24;;;;;;;14.13;12.60;;;17.50;99.90;;;;;;5034010;28;20708;-55
2021/09/08 00:40:54;;;;;;;14.07;12.70;;;17.50;99.90;;;;;;5034699;28;20177;-57
2021/09/08 00:43:20;;;;;;;13.60;12.20;;;17.50;99.90;;;;;;5035053;28;20195;-56
2021/09/08 00:45:56;;;;;;;14.40;12.97;;;17.60;99.90;;;;;;5034588;28;20910;-57
2021/09/08 00:48:21;;;;;;;14.17;12.90;;;17.60;99.90;;;;;;5034695;28;20182;-57
2021/09/08 00:50:49;;;;;;;13.23;12.03;;;17.50;99.90;;;;;;5034589;28;21007;-55
2021/09/08 00:53:18;;;;;;;12.50;11.43;;;17.40;99.90;;;;;;5034006;28;20406;-56
2021/09/08 00:55:44;;;;;;;13.80;12.60;;;17.50;99.90;;;;;;5034328;28;20485;-55
2021/09/08 00:58:11;;;;;;;14.70;13.00;;;17.40;99.90;;;;;;5034246;28;20989;-53
2021/09/08 01:00:37;;;;;;;13.57;11.40;;;17.40;99.90;;;;;;5034543;28;20448;-56
2021/09/08 01:03:03;;;;;;;12.47;11.33;;;17.40;99.90;;;;;;5034145;28;20858;-57
2021/09/08 01:05:28;;;;;;;13.10;11.63;;;17.40;99.90;;;;;;5034134;28;20409;-56
2021/09/08 01:07:56;;;;;;;13.63;12.00;;;17.40;99.90;;;;;;5033456;28;20253;-54
2021/09/08 01:10:23;;;;;;;14.43;12.97;;;17.30;99.90;;;;;;5033990;28;20306;-53
2021/09/08 01:12:48;;;;;;;13.00;11.77;;;17.20;99.90;;;;;;5034200;28;20438;-55
2021/09/08 01:15:14;;;;;;;13.13;11.80;;;17.30;99.90;;;;;;5034189;28;20796;-53
2021/09/08 01:17:44;;;;;;;13.63;12.23;;;17.20;99.90;;;;;;5033855;28;20194;-55
2021/09/08 01:20:12;;;;;;;13.53;12.33;;;17.20;99.90;;;;;;5034705;28;20181;-53
2021/09/08 01:22:48;;;;;;;12.60;11.43;;;17.10;99.90;;;;;;5033810;28;20818;-53
2021/09/08 01:25:19;;;;;;;14.47;13.17;;;17.10;99.90;;;;;;5034102;28;20384;-53
2021/09/08 01:27:45;;;;;;;14.80;13.30;;;17.00;99.90;;;;;;5033910;28;20443;-51
2021/09/08 01:30:11;;;;;;;13.93;12.53;;;17.10;99.90;;;;;;5033720;28;20484;-56
2021/09/08 01:32:36;;;;;;;14.40;13.00;;;17.10;99.90;;;;;;5033690;28;20386;-53
2021/09/08 01:35:02;;;;;;;14.00;12.67;;;17.10;99.90;;;;;;5033731;28;20394;-53
2021/09/08 01:37:27;;;;;;;12.97;11.70;;;17.10;99.90;;;;;;5032576;28;20202;-57
2021/09/08 01:39:53;;;;;;;14.57;13.07;;;17.10;99.90;;;;;;5033408;28;20166;-54
2021/09/08 01:42:19;;;;;;;13.53;12.27;;;17.00;99.90;;;;;;5033506;28;20170;-54
2021/09/08 01:44:45;;;;;;;14.60;13.10;;;16.90;99.90;;;;;;5033702;28;20250;-55
2021/09/08 01:47:12;;;;;;;13.40;12.10;;;16.90;99.90;;;;;;5033597;28;20170;-53
2021/09/08 01:49:37;;;;;;;13.67;12.43;;;16.80;99.90;;;;;;5033450;28;20401;-53
2021/09/08 01:52:03;;;;;;;13.67;12.27;;;16.70;99.90;;;;;;5033360;28;20549;-54
2021/09/08 01:54:30;;;;;;;15.30;13.10;;;16.70;99.90;;;;;;5033210;28;20175;-56
2021/09/08 01:56:55;;;;;;;14.47;13.07;;;16.70;99.90;;;;;;5033564;28;20821;-53
2021/09/08 01:59:21;;;;;;;13.10;11.77;;;16.70;99.90;;;;;;5033369;28;20402;-53
2021/09/08 02:01:47;;;;;;;12.73;11.50;;;16.70;99.90;;;;;;5016103;28;20185;-53
2021/09/08 02:04:12;;;;;;;14.93;13.33;;;16.80;99.90;;;;;;5013421;28;20190;-56
2021/09/08 02:06:48;;;;;;;13.53;12.20;;;16.70;99.90;;;;;;5013508;28;20705;-54
2021/09/08 02:09:14;;;;;;;15.47;13.97;;;16.80;99.90;;;;;;5031082;28;20250;-54
2021/09/08 02:11:41;;;;;;;13.27;11.90;;;16.70;99.90;;;;;;5033089;28;20916;-56
2021/09/08 02:14:07;;;;;;;14.50;13.10;;;16.70;99.90;;;;;;5033397;28;20778;-56
2021/09/08 02:16:32;;;;;;;14.17;12.77;;;16.70;99.90;;;;;;5033010;28;20407;-57
2021/09/08 02:18:58;;;;;;;18.07;12.40;;;16.60;99.90;;;;;;5032991;28;20187;-55
2021/09/08 02:21:23;;;;;;;19.23;14.67;;;16.60;99.90;;;;;;5033030;28;20201;-53
2021/09/08 02:23:49;;;;;;;15.03;13.57;;;16.70;99.90;;;;;;5031307;28;20196;-53
2021/09/08 02:26:15;;;;;;;15.60;14.03;;;16.70;99.90;;;;;;5032959;28;20173;-56
2021/09/08 02:28:41;;;;;;;14.63;13.13;;;16.60;99.90;;;;;;5032906;28;20196;-56
2021/09/08 02:31:07;;;;;;;13.13;11.83;;;16.60;99.90;;;;;;5033205;28;20783;-55
2021/09/08 02:33:32;;;;;;;13.70;12.27;;;16.60;99.90;;;;;;5032905;28;20636;-55
2021/09/08 02:35:58;;;;;;;13.37;12.13;;;16.50;99.90;;;;;;5033111;28;20214;-55
2021/09/08 02:38:24;;;;;;;13.63;12.27;;;16.50;99.90;;;;;;5032235;28;20711;-53
2021/09/08 02:40:56;;;;;;;14.80;13.40;;;16.40;99.90;;;;;;5034252;28;20182;-53
2021/09/08 02:43:21;;;;;;;14.47;13.07;;;16.40;99.90;;;;;;5032993;28;20227;-56
2021/09/08 02:45:47;;;;;;;13.83;12.53;;;16.40;99.90;;;;;;5032802;28;20433;-56
2021/09/08 02:48:12;;;;;;;15.77;13.80;;;16.50;99.90;;;;;;5032730;28;20192;-56
2021/09/08 02:50:38;;;;;;;14.10;12.77;;;16.40;99.90;;;;;;5036343;28;20240;-57
2021/09/08 02:53:03;;;;;;;15.40;13.80;;;16.40;99.90;;;;;;5036371;28;20248;-55
2021/09/08 02:55:29;;;;;;;13.60;12.27;;;16.40;99.90;;;;;;5036503;28;20211;-58
2021/09/08 02:57:55;;;;;;;14.43;13.00;;;16.40;99.90;;;;;;5036441;28;20191;-57
2021/09/08 03:00:20;;;;;;;13.27;12.07;;;16.30;99.90;;;;;;5036448;28;20167;-57
2021/09/08 03:02:46;;;;;;;13.30;11.83;;;16.30;99.90;;;;;;5036898;28;20160;-54
2021/09/08 03:05:11;;;;;;;15.27;13.90;;;16.30;99.90;;;;;;5036338;28;20189;-57
2021/09/08 03:07:37;;;;;;;15.20;13.60;;;16.30;99.90;;;;;;5036221;28;20230;-54
2021/09/08 03:10:03;;;;;;;14.33;12.93;;;16.30;99.90;;;;;;5035999;28;20171;-56
2021/09/08 03:12:29;;;;;;;14.93;13.33;;;16.20;99.90;;;;;;5018526;28;20239;-54
2021/09/08 03:14:54;;;;;;;13.53;12.30;;;16.20;99.90;;;;;;5036675;28;20822;-57
2021/09/08 03:17:20;;;;;;;14.77;13.43;;;16.20;99.90;;;;;;5036083;28;20194;-55
2021/09/08 03:19:45;;;;;;;15.37;13.87;;;16.20;99.90;;;;;;5036069;28;20208;-55
2021/09/08 03:22:11;;;;;;;14.10;12.80;;;16.20;99.90;;;;;;5035853;28;20178;-54
2021/09/08 03:24:37;;;;;;;16.23;14.07;;;16.20;99.90;;;;;;5035793;28;20551;-54
2021/09/08 03:27:03;;;;;;;14.07;12.70;;;16.10;99.90;;;;;;5036122;28;20470;-55
2021/09/08 03:29:28;;;;;;;14.13;12.63;;;16.20;99.90;;;;;;5035931;28;20169;-58
2021/09/08 03:31:54;;;;;;;12.70;11.50;;;16.20;99.90;;;;;;5035966;28;20772;-57
2021/09/08 03:34:19;;;;;;;15.80;13.87;;;16.20;99.90;;;;;;5036091;28;20175;-57
2021/09/08 03:36:45;;;;;;;15.70;14.23;;;16.20;99.90;;;;;;5036358;28;20175;-55
2021/09/08 03:39:11;;;;;;;16.33;14.00;;;16.10;99.90;;;;;;5035082;28;20213;-55
2021/09/08 03:41:36;;;;;;;14.60;13.10;;;16.20;99.90;;;;;;5035662;28;20177;-56
2021/09/08 03:44:02;;;;;;;15.60;14.00;;;16.20;99.90;;;;;;5036117;28;20538;-56
2021/09/08 03:46:27;;;;;;;14.73;13.37;;;16.20;99.90;;;;;;5035612;28;20191;-56
2021/09/08 03:48:53;;;;;;;15.80;14.40;;;16.20;99.90;;;;;;5035500;28;20650;-55
2021/09/08 03:51:19;;;;;;;17.63;15.87;;;16.10;99.90;;;;;;5035560;28;20164;-56
2021/09/08 03:53:44;;;;;;;16.40;14.80;;;16.00;99.90;;;;;;5035049;28;20650;-57
2021/09/08 03:56:10;;;;;;;16.17;14.57;;;16.00;99.90;;;;;;5035784;28;20173;-54
2021/09/08 03:58:36;;;;;;;14.77;13.37;;;16.00;99.90;;;;;;5018090;28;20198;-55
2021/09/08 04:01:02;;;;;;;17.20;15.60;;;16.00;99.90;;;;;;5014809;28;20216;-55
2021/09/08 04:03:28;;;;;;;15.57;13.77;;;16.00;99.90;;;;;;5015688;28;20825;-55
2021/09/08 04:05:54;;;;;;;16.00;14.50;;;15.80;99.90;;;;;;5015512;28;20166;-56
2021/09/08 04:08:19;;;;;;;13.80;12.60;;;15.90;99.90;;;;;;5025517;28;20192;-57
2021/09/08 04:10:45;;;;;;;17.50;15.73;;;15.80;99.90;;;;;;5035167;28;20535;-56
2021/09/08 04:13:11;;;;;;;17.40;15.60;;;15.80;99.90;;;;;;5035099;28;20547;-57
2021/09/08 04:15:36;;;;;;;14.70;13.27;;;15.80;99.90;;;;;;5035371;28;20177;-57
2021/09/08 04:18:02;;;;;;;16.10;14.50;;;15.70;99.90;;;;;;5035799;28;20202;-56
2021/09/08 04:20:28;;;;;;;18.77;15.17;;;15.70;99.90;;;;;;5035310;28;20198;-54
2021/09/08 04:22:54;;;;;;;16.03;14.43;;;15.70;99.90;;;;;;5034773;28;20413;-56
2021/09/08 04:25:19;;;;;;;15.27;13.50;;;15.60;99.90;;;;;;5034633;28;20250;-55
2021/09/08 04:27:46;;;;;;;15.50;14.07;;;15.70;99.90;;;;;;5034910;28;20186;-55
2021/09/08 04:30:12;;;;;;;13.80;12.60;;;15.60;99.90;;;;;;5034757;28;20170;-55
2021/09/08 04:32:37;;;;;;;14.43;13.13;;;15.60;99.90;;;;;;5034916;28;20408;-54
2021/09/08 04:35:04;;;;;;;17.13;15.50;;;15.50;99.90;;;;;;5034959;28;20515;-54
2021/09/08 04:37:29;;;;;;;16.30;14.70;;;15.50;99.90;;;;;;5034146;28;20215;-53
2021/09/08 04:39:56;;;;;;;13.47;12.07;;;15.50;99.90;;;;;;5034236;28;20407;-57
2021/09/08 04:42:22;;;;;;;16.20;14.50;;;15.50;99.90;;;;;;5034763;28;20245;-54
2021/09/08 04:44:47;;;;;;;15.47;13.97;;;15.50;99.90;;;;;;5034506;28;20445;-56
2021/09/08 04:47:13;;;;;;;15.67;14.20;;;15.60;99.90;;;;;;5034389;28;20177;-55
2021/09/08 04:49:38;;;;;;;14.60;13.10;;;15.60;99.90;;;;;;5034345;28;20535;-56
2021/09/08 04:52:04;;;;;;;16.17;14.67;;;15.60;99.90;;;;;;5034462;28;20198;-56
2021/09/08 04:54:30;;;;;;;15.93;14.40;;;15.60;99.90;;;;;;5033965;28;20697;-56
2021/09/08 04:56:55;;;;;;;15.67;14.10;;;15.50;99.90;;;;;;5034472;28;20411;-58
2021/09/08 04:59:21;;;;;;;17.10;15.47;;;15.50;99.90;;;;;;5034414;28;20690;-56
2021/09/08 05:01:46;;;;;;;18.00;15.03;;;15.50;99.90;;;;;;5034122;28;20543;-56
2021/09/08 05:04:12;;;;;;;15.77;14.27;;;15.50;99.90;;;;;;5034075;28;20190;-55
2021/09/08 05:06:38;;;;;;;17.43;15.57;;;15.50;99.90;;;;;;5034304;28;20717;-58
2021/09/08 05:09:03;;;;;;;16.20;14.60;;;15.50;99.90;;;;;;5033648;28;20194;-57
2021/09/08 05:11:29;;;;;;;15.27;13.60;;;15.50;99.90;;;;;;5033841;28;20169;-55
2021/09/08 05:13:54;;;;;;;14.40;13.03;;;15.50;99.90;;;;;;5033026;28;20175;-54
2021/09/08 05:16:20;;;;;;;14.80;13.37;;;15.50;99.90;;;;;;5031477;28;20256;-54
2021/09/08 05:18:46;;;;;;;14.03;12.63;;;15.50;99.90;;;;;;5015981;28;20203;-58
2021/09/08 05:21:11;;;;;;;15.30;13.80;;;15.50;99.90;;;;;;5014243;28;20173;-54
2021/09/08 05:23:38;;;;;;;15.03;13.50;;;15.60;99.90;;;;;;5030713;28;20202;-54
2021/09/08 05:26:05;;;;;;;14.80;13.40;;;15.50;99.90;;;;;;5033588;28;20635;-55
2021/09/08 05:28:31;;;;;;;13.97;12.60;;;15.60;99.90;;;;;;5034015;28;20425;-58
2021/09/08 05:30:57;;;;;;;13.67;12.27;;;15.60;99.90;;;;;;5033776;28;20417;-54
2021/09/08 05:33:23;;;;;;;15.10;13.50;;;15.60;99.90;;;;;;5033947;28;20533;-55
2021/09/08 05:35:48;;;;;;;14.33;12.93;;;15.60;99.90;;;;;;5015935;28;20418;-57
2021/09/08 05:38:14;;;;;;;14.57;13.13;;;15.60;99.90;;;;;;5022933;28;20220;-57
2021/09/08 05:40:40;;;;;;;12.53;11.43;;;15.60;99.90;;;;;;5033138;28;20182;-56
2021/09/08 05:43:05;;;;;;;14.67;13.17;;;15.60;99.90;;;;;;5033224;28;20232;-57
2021/09/08 05:45:31;;;;;;;15.10;13.67;;;15.70;99.90;;;;;;5033293;28;20181;-57
2021/09/08 05:47:57;;;;;;;16.00;14.40;;;15.70;99.90;;;;;;5033403;28;20189;-57
2021/09/08 05:50:22;;;;;;;14.57;13.07;;;15.70;99.90;;;;;;5033404;28;20208;-58
2021/09/08 05:52:48;;;;;;;16.40;14.80;;;15.70;99.90;;;;;;5033213;28;20178;-53
2021/09/08 05:55:13;;;;;;;15.30;12.60;;;15.70;99.90;;;;;;5033109;28;20639;-58
2021/09/08 05:57:39;;;;;;;15.70;14.30;;;15.80;99.90;;;;;;5033175;28;20191;-57
2021/09/08 06:00:07;;;;;;;15.53;13.90;;;15.80;99.90;;;;;;5032971;28;20190;-58
2021/09/08 06:02:33;;;;;;;12.90;11.57;;;15.80;99.90;;;;;;5032942;28;20187;-58
2021/09/08 06:04:58;;;;;;;14.57;12.60;;;15.80;99.90;;;;;;5024569;28;20956;-57
2021/09/08 06:07:24;;;;;;;14.87;13.37;;;15.80;99.90;;;;;;5015463;28;20203;-56
2021/09/08 06:09:49;;;;;;;15.07;13.60;;;15.90;99.90;;;;;;5032969;28;20220;-56
2021/09/08 06:12:15;;;;;;;18.80;14.97;;;16.00;99.90;;;;;;5033016;28;20185;-57
2021/09/08 06:14:40;;;;;;;13.70;12.30;;;16.00;99.90;;;;;;5033286;28;20215;-55
2021/09/08 06:17:06;;;;;;;16.40;14.17;;;16.00;99.90;;;;;;5032935;28;20255;-56
2021/09/08 06:19:32;;;;;;;13.97;12.57;;;16.10;99.90;;;;;;5033225;28;20173;-54
2021/09/08 06:21:58;;;;;;;14.90;13.40;;;16.20;99.90;;;;;;5033201;28;20550;-54
2021/09/08 06:24:24;;;;;;;14.00;12.60;;;16.30;99.90;;;;;;5034128;28;20447;-54
2021/09/08 06:26:49;;;;;;;13.77;12.40;;;16.40;99.90;;;;;;5036967;28;20173;-57
2021/09/08 06:29:16;;;;;;;13.40;12.10;;;16.40;99.90;;;;;;5037127;28;20558;-55
2021/09/08 06:31:42;;;;;;;13.97;12.50;;;16.50;99.90;;;;;;5037395;28;20169;-57
2021/09/08 06:34:09;;;;;;;14.23;12.70;;;16.60;99.90;;;;;;5037376;28;20824;-55
2021/09/08 06:36:34;;;;;;;16.77;13.13;;;16.70;99.90;;;;;;5036880;28;20198;-57
2021/09/08 06:39:00;;;;;;;14.63;13.10;;;16.80;99.90;;;;;;5018044;28;20500;-55
2021/09/08 06:41:25;;;;;;;15.13;13.63;;;16.90;99.90;;;;;;5036959;28;20202;-58
2021/09/08 06:43:51;;;;;;;14.03;12.63;;;17.00;99.90;;;;;;5036866;28;20721;-54
2021/09/08 06:46:17;;;;;;;14.90;13.20;;;17.10;99.90;;;;;;5037339;28;20186;-58
2021/09/08 06:48:43;;;;;;;14.67;13.27;;;17.20;99.90;;;;;;5036250;28;20430;-55
2021/09/08 06:51:09;;;;;;;14.57;13.17;;;17.40;99.90;;;;;;5036785;28;20167;-55
2021/09/08 06:53:34;;;;;;;16.40;14.80;;;17.50;99.90;;;;;;5035969;28;20410;-56
2021/09/08 06:56:00;;;;;;;15.30;13.90;;;17.50;99.90;;;;;;5036164;28;20178;-56
2021/09/08 06:58:26;;;;;;;14.13;12.83;;;17.70;99.90;;;;;;5036799;28;20198;-56
2021/09/08 07:00:51;;;;;;;16.40;14.90;;;17.80;99.90;;;;;;5036170;28;20167;-57
2021/09/08 07:03:17;;;;;;;15.20;13.70;;;17.80;99.90;;;;;;5036020;28;20651;-56
2021/09/08 07:05:42;;;;;;;17.70;14.23;;;18.00;99.90;;;;;;5036313;28;20171;-56
2021/09/08 07:08:09;;;;;;;18.00;16.30;;;18.10;99.90;;;;;;5035918;28;20198;-54
2021/09/08 07:10:36;;;;;;;17.17;14.83;;;18.20;99.90;;;;;;5035575;28;20174;-57
2021/09/08 07:13:02;;;;;;;17.83;15.63;;;18.30;99.90;;;;;;5036119;28;20402;-53
2021/09/08 07:15:27;;;;;;;18.87;16.77;;;18.40;99.90;;;;;;5036101;28;20417;-56
2021/09/08 07:17:53;;;;;;;18.27;16.47;;;18.60;99.90;;;;;;5036095;28;20195;-56
2021/09/08 07:20:19;;;;;;;16.10;14.40;;;18.60;99.90;;;;;;5035932;28;20238;-57
2021/09/08 07:22:44;;;;;;;16.67;15.07;;;18.80;99.90;;;;;;5036097;28;20206;-57
2021/09/08 07:25:10;;;;;;;16.03;14.43;;;18.90;99.90;;;;;;5035526;28;20191;-55
2021/09/08 07:27:36;;;;;;;18.00;16.10;;;19.10;99.90;;;;;;5035588;28;20672;-58
2021/09/08 07:30:02;;;;;;;18.83;16.90;;;19.00;99.90;;;;;;5035963;28;20901;-55
2021/09/08 07:32:28;;;;;;;20.47;16.50;;;19.10;99.90;;;;;;5035661;28;20246;-57
2021/09/08 07:34:58;;;;;;;20.17;17.40;;;19.20;99.90;;;;;;5035571;28;20410;-57
2021/09/08 07:37:24;;;;;;;21.77;19.47;;;19.30;99.90;;;;;;5035062;28;20591;-55
2021/09/08 07:39:49;;;;;;;20.53;18.33;;;19.50;99.90;;;;;;5035148;28;20418;-56
2021/09/08 07:42:16;;;;;;;20.37;18.27;;;19.60;99.90;;;;;;5035862;28;20406;-57
2021/09/08 07:44:42;;;;;;;20.03;17.93;;;19.60;99.90;;;;;;5035396;28;20563;-57
2021/09/08 07:47:09;;;;;;;18.80;16.90;;;19.70;99.90;;;;;;5035540;28;20410;-57
2021/09/08 07:49:34;;;;;;;20.90;17.53;;;19.70;99.90;;;;;;5035664;28;20406;-57
2021/09/08 07:52:00;;;;;;;19.43;17.40;;;19.80;99.90;;;;;;5035271;28;20402;-55
2021/09/08 07:54:26;;;;;;;22.83;18.67;;;19.90;99.90;;;;;;5034971;28;20175;-56
2021/09/08 07:56:53;;;;;;;22.30;18.30;;;20.00;99.90;;;;;;5035440;28;20175;-56
2021/09/08 07:59:18;;;;;;;18.27;16.27;;;19.80;99.90;;;;;;5035351;28;20438;-54
2021/09/08 08:01:44;;;;;;;20.93;17.17;;;19.80;99.90;;;;;;5033546;28;20411;-57
2021/09/08 08:04:10;;;;;;;19.43;17.20;;;19.80;99.90;;;;;;5015235;28;20196;-57
2021/09/08 08:06:37;;;;;;;16.90;15.23;;;19.80;99.90;;;;;;5015548;28;20172;-58
2021/09/08 08:09:03;;;;;;;16.87;15.03;;;19.90;99.90;;;;;;5029471;28;20442;-58
2021/09/08 08:11:29;;;;;;;17.53;15.70;;;19.70;99.90;;;;;;5034411;28;20907;-57
2021/09/08 08:13:55;;;;;;;15.33;13.77;;;19.70;99.90;;;;;;5034551;28;20465;-55
2021/09/08 08:16:21;;;;;;;15.73;14.30;;;19.80;99.90;;;;;;5034297;28;20442;-58
2021/09/08 08:18:47;;;;;;;15.50;14.10;;;19.90;99.90;;;;;;5034456;28;20222;-56
2021/09/08 08:21:16;;;;;;;14.53;13.13;;;20.00;99.90;;;;;;5034281;28;20186;-57
2021/09/08 08:23:41;;;;;;;13.37;12.07;;;20.10;99.90;;;;;;5033964;28;20672;-57
2021/09/08 08:26:07;;;;;;;13.63;12.27;;;20.20;99.90;;;;;;5034024;28;20533;-55
2021/09/08 08:28:33;;;;;;;14.97;13.47;;;20.40;99.90;;;;;;5034109;28;20211;-57
2021/09/08 08:31:00;;;;;;;12.97;11.63;;;20.50;99.90;;;;;;5034688;28;20698;-58
2021/09/08 08:33:27;;;;;;;13.27;11.97;;;20.60;99.90;;;;;;5035536;28;20176;-57
2021/09/08 08:35:53;;;;;;;14.83;11.23;;;20.80;99.90;;;;;;5034696;28;20406;-57
2021/09/08 08:38:18;;;;;;;13.47;10.90;;;21.00;99.90;;;;;;5034186;28;20995;-57
2021/09/08 08:40:44;;;;;;;12.57;10.67;;;21.20;99.90;;;;;;5034531;28;20175;-57
2021/09/08 08:43:11;;;;;;;20.07;12.40;;;21.30;99.90;;;;;;5034583;28;20183;-57
2021/09/08 08:45:37;;;;;;;12.50;10.90;;;21.20;99.90;;;;;;5047903;22;20516;-61
2021/09/08 08:48:03;;;;;;;13.23;11.20;;;21.10;99.90;;;;;;5025454;28;20402;-61
2021/09/08 08:50:29;;;;;;;11.70;10.57;;;21.20;99.90;;;;;;5034417;28;20748;-61
2021/09/08 08:52:56;;;;;;;11.80;10.60;;;21.30;99.90;;;;;;5034421;28;20409;-61
2021/09/08 08:55:22;;;;;;;16.33;11.60;;;21.20;99.90;;;;;;5033995;28;20191;-60
2021/09/08 08:57:50;;;;;;;11.83;10.37;;;21.40;99.90;;;;;;5032710;28;20406;-61
2021/09/08 09:00:17;;;;;;;11.77;10.50;;;21.40;99.90;;;;;;5024917;28;20486;-61
2021/09/08 09:02:48;;;;;;;11.33;10.23;;;21.50;99.90;;;;;;5014659;28;20417;-62
2021/09/08 09:05:29;;;;;;;12.67;11.00;;;21.70;99.90;;;;;;5013527;28;20823;-60
2021/09/08 09:07:54;;;;;;;11.40;10.17;;;21.90;99.90;;;;;;5013410;28;20987;-61
2021/09/08 09:10:20;;;;;;;10.63;9.63;;;22.00;99.90;;;;;;5030266;28;20512;-61
2021/09/08 09:12:47;;;;;;;10.27;9.20;;;22.00;99.90;;;;;;5033834;28;20163;-59
2021/09/08 09:15:16;;;;;;;10.50;9.07;;;21.90;99.90;;;;;;5033520;28;20333;-61
2021/09/08 09:17:42;;;;;;;10.70;9.60;;;21.80;99.90;;;;;;5034178;28;20456;-61
2021/09/08 09:20:11;;;;;;;9.67;8.40;;;21.90;99.90;;;;;;5033959;28;20409;-61
2021/09/08 09:22:39;;;;;;;9.63;8.73;;;21.90;99.90;;;;;;5034197;28;20398;-60
2021/09/08 09:25:06;;;;;;;9.80;8.90;;;22.00;99.90;;;;;;5033875;28;20458;-60
2021/09/08 09:27:43;;;;;;;10.00;8.70;;;22.20;99.90;;;;;;5033822;28;20409;-61
2021/09/08 09:30:11;;;;;;;10.40;9.33;;;22.30;99.90;;;;;;5033747;28;20473;-59
2021/09/08 09:32:45;;;;;;;13.17;10.20;;;22.60;99.90;;;;;;5033746;28;20402;-59
2021/09/08 09:35:13;;;;;;;9.33;8.17;;;22.50;99.90;;;;;;5033619;28;20529;-61
2021/09/08 09:38:05;;;;;;;8.70;7.80;;;22.60;99.90;;;;;;5033517;28;20421;-61
2021/09/08 09:40:33;;;;;;;8.77;7.90;;;22.60;99.90;;;;;;5029963;28;20433;-61
2021/09/08 09:43:08;;;;;;;8.97;8.17;;;22.70;99.90;;;;;;5033447;28;20948;-61
2021/09/08 09:45:35;;;;;;;9.20;8.40;;;22.90;99.90;;;;;;5032926;28;20476;-61
2021/09/08 09:48:02;;;;;;;9.50;8.60;;;23.00;99.90;;;;;;5033696;28;20406;-61
2021/09/08 09:50:28;;;;;;;10.70;8.80;;;23.10;99.90;;;;;;5033142;28;20903;-61
2021/09/08 09:52:54;;;;;;;9.60;8.60;;;23.20;99.90;;;;;;5033276;28;20410;-60
2021/09/08 09:55:22;;;;;;;8.60;7.70;;;23.40;99.90;;;;;;5033322;28;20194;-61
2021/09/08 09:57:48;;;;;;;10.50;9.10;;;23.40;99.90;;;;;;5033303;28;20402;-61
2021/09/08 10:00:15;;;;;;;8.43;7.60;;;23.50;99.90;;;;;;5032413;28;20429;-62
2021/09/08 10:02:41;;;;;;;9.70;8.80;;;23.50;99.70;;;;;;5031559;28;20406;-61
2021/09/08 10:05:08;;;;;;;9.90;8.73;;;23.50;99.20;;;;;;5013850;28;20879;-61
2021/09/08 10:07:36;;;;;;;8.57;7.77;;;23.40;99.70;;;;;;5013664;28;20898;-60
2021/09/08 10:10:12;;;;;;;9.20;8.40;;;23.40;99.50;;;;;;5027039;28;20406;-61
2021/09/08 10:12:45;;;;;;;9.60;8.70;;;23.50;99.40;;;;;;5015075;28;20409;-62
2021/09/08 10:15:14;;;;;;;9.87;9.00;;;23.70;99.90;;;;;;5032438;28;20841;-62
2021/09/08 10:17:45;;;;;;;8.87;7.97;;;24.10;99.10;;;;;;5033124;28;20414;-60
2021/09/08 10:20:16;;;;;;;9.27;8.47;;;24.30;98.70;;;;;;5033218;28;20429;-60
2021/09/08 10:22:46;;;;;;;9.33;8.37;;;24.00;98.50;;;;;;5033445;28;20394;-61
2021/09/08 10:25:17;;;;;;;10.20;9.30;;;24.30;98.80;;;;;;5033111;28;20978;-60
2021/09/08 10:27:43;;;;;;;9.53;8.53;;;24.10;98.90;;;;;;5033184;28;20391;-61
2021/09/08 10:30:11;;;;;;;9.50;8.60;;;24.40;98.60;;;;;;5033347;28;20505;-61
2021/09/08 10:32:40;;;;;;;9.60;8.70;;;24.20;98.90;;;;;;5032931;28;20859;-60
2021/09/08 10:35:12;;;;;;;9.00;8.20;;;24.40;98.90;;;;;;5032796;28;20433;-61
2021/09/08 10:37:38;;;;;;;8.43;7.63;;;24.20;98.10;;;;;;5032786;28;20406;-59
2021/09/08 10:40:08;;;;;;;9.50;8.70;;;24.20;98.40;;;;;;5032943;28;20460;-61
2021/09/08 10:42:48;;;;;;;8.93;8.10;;;24.40;98.60;;;;;;5032967;28;20265;-61
2021/09/08 10:45:22;;;;;;;9.87;8.73;;;24.80;98.20;;;;;;5032399;28;20465;-60
2021/09/08 10:47:49;;;;;;;10.20;8.50;;;25.90;97.40;;;;;;5032607;28;20424;-60
2021/09/08 10:50:15;;;;;;;9.40;8.60;;;26.40;95.60;;;;;;5032514;28;20948;-61
2021/09/08 10:52:44;;;;;;;9.57;8.60;;;27.70;94.30;;;;;;5033081;28;20413;-62
2021/09/08 10:55:20;;;;;;;8.60;7.87;;;29.00;92.80;;;;;;5033406;28;20819;-61
2021/09/08 10:57:48;;;;;;;7.83;7.03;;;29.60;90.50;;;;;;5032808;28;20401;-62
2021/09/08 11:00:21;;;;;;;8.27;7.57;;;30.70;85.00;;;;;;5032976;28;20463;-60
2021/09/08 11:02:46;;;;;;;8.33;7.47;;;31.60;80.60;;;;;;5033020;28;20390;-61
2021/09/08 11:05:12;;;;;;;7.63;6.93;;;32.80;78.20;;;;;;5032398;28;20465;-61
2021/09/08 11:07:48;;;;;;;9.23;8.33;;;33.40;71.60;;;;;;5033539;28;20174;-62
2021/09/08 11:10:23;;;;;;;8.10;7.20;;;33.00;69.90;;;;;;5034394;28;20167;-61
2021/09/08 11:12:51;;;;;;;7.77;7.07;;;31.90;70.70;;;;;;5036637;28;20397;-60
2021/09/08 11:15:18;;;;;;;8.43;6.87;;;32.20;71.10;;;;;;5035961;28;20440;-61
2021/09/08 11:17:52;;;;;;;7.00;6.40;;;33.70;67.90;;;;;;5036496;28;20422;-61
2021/09/08 11:20:18;;;;;;;8.20;7.40;;;33.50;65.20;;;;;;5036200;28;20425;-61
2021/09/08 11:22:58;;;;;;;8.60;7.73;;;33.70;64.30;;;;;;5036079;28;20405;-61
2021/09/08 11:25:32;;;;;;;7.90;6.40;;;33.10;64.40;;;;;;5036242;28;20469;-61
2021/09/08 11:27:59;;;;;;;7.17;6.57;;;32.30;66.70;;;;;;5035977;28;20401;-60
2021/09/08 11:30:33;;;;;;;9.57;8.07;;;33.30;64.50;;;;;;5035761;28;20436;-60
2021/09/08 11:33:02;;;;;;;7.40;6.80;;;33.10;64.80;;;;;;5018333;28;20418;-60
2021/09/08 11:35:46;;;;;;;7.70;7.00;;;33.60;63.00;;;;;;5017725;28;20442;-61
2021/09/08 11:38:16;;;;;;;8.00;7.20;;;35.30;61.60;;;;;;5036002;28;20472;-61
2021/09/08 11:40:47;;;;;;;8.20;7.50;;;35.40;59.80;;;;;;5035605;28;20798;-61
2021/09/08 11:43:13;;;;;;;9.30;7.07;;;34.20;60.30;;;;;;5035618;28;20425;-59
2021/09/08 11:45:39;;;;;;;7.67;6.63;;;33.30;61.70;;;;;;5017270;28;20515;-60
2021/09/08 11:48:06;;;;;;;7.87;7.17;;;34.80;61.00;;;;;;5035820;28;20973;-60
2021/09/08 11:50:32;;;;;;;7.30;6.70;;;34.70;60.10;;;;;;5034477;28;20406;-58
2021/09/08 11:53:00;;;;;;;7.70;7.00;;;35.10;57.90;;;;;;5034367;28;20408;-61
2021/09/08 11:55:37;;;;;;;6.70;6.10;;;35.20;56.10;;;;;;5035388;28;20418;-61
2021/09/08 11:58:21;;;;;;;6.70;6.10;;;33.40;60.50;;;;;;5035792;28;20390;-61
2021/09/08 12:00:58;;;;;;;6.90;6.03;;;33.40;58.50;;;;;;5023623;28;20402;-61
2021/09/08 12:03:24;;;;;;;8.70;6.70;;;33.70;59.30;;;;;;5015560;28;20398;-61
2021/09/08 12:05:50;;;;;;;7.30;6.67;;;33.60;59.40;;;;;;5015482;28;20431;-59
2021/09/08 12:08:23;;;;;;;6.23;5.60;;;34.10;58.70;;;;;;5015840;28;20425;-61
2021/09/08 12:10:49;;;;;;;6.30;5.80;;;34.30;58.00;;;;;;5015535;28;20526;-60
2021/09/08 12:13:33;;;;;;;6.60;6.10;;;35.40;55.50;;;;;;4997793;28;20415;-60
2021/09/08 12:15:59;;;;;;;7.93;5.90;;;34.80;56.30;;;;;;5015238;28;20433;-60
2021/09/08 12:18:25;;;;;;;7.73;6.17;;;35.00;54.80;;;;;;5015265;28;20407;-61
2021/09/08 12:20:51;;;;;;;7.63;5.90;;;36.90;52.30;;;;;;5015024;28;20749;-61
2021/09/08 12:23:29;;;;;;;5.93;5.47;;;38.00;53.00;;;;;;5014422;28;20513;-61
2021/09/08 12:26:10;;;;;;;5.80;5.30;;;36.80;51.10;;;;;;5015322;28;20282;-63
2021/09/08 12:28:37;;;;;;;6.60;6.07;;;36.60;51.70;;;;;;5015447;28;20391;-61
2021/09/08 12:31:20;;;;;;;5.90;4.90;;;35.20;50.90;;;;;;5015043;28;20430;-62